createdAt,value
2022-11-18T00:01:29.386Z,11.70
2022-11-18T00:03:59.264Z,11.70
2022-11-18T00:06:29.573Z,11.70
2022-11-18T00:08:59.371Z,11.70
2022-11-18T00:11:46.219Z,11.60
2022-11-18T00:14:23.365Z,11.60
2022-11-18T00:16:55.070Z,11.60
2022-11-18T00:19:26.566Z,11.70
2022-11-18T00:21:55.429Z,11.60
2022-11-18T00:24:23.869Z,11.60
2022-11-18T00:26:52.495Z,11.60
2022-11-18T00:29:21.635Z,11.60
2022-11-18T00:31:50.632Z,11.60
2022-11-18T00:34:20.109Z,11.70
2022-11-18T00:36:50.121Z,11.60
2022-11-18T00:39:21.291Z,11.60
2022-11-18T00:42:07.939Z,11.60
2022-11-18T00:44:37.012Z,11.70
2022-11-18T00:47:05.841Z,11.60
2022-11-18T00:49:34.335Z,11.70
2022-11-18T00:52:04.248Z,11.70
2022-11-18T00:54:32.713Z,11.70
2022-11-18T00:57:01.234Z,11.70
2022-11-18T00:59:29.711Z,11.70
2022-11-18T01:01:58.418Z,11.70
2022-11-18T01:04:26.886Z,11.70
2022-11-18T01:06:55.281Z,11.70
2022-11-18T01:09:25.141Z,11.70
2022-11-18T01:12:10.885Z,11.70
2022-11-18T01:14:39.345Z,11.70
2022-11-18T01:17:07.810Z,11.70
2022-11-18T01:19:36.496Z,11.70
2022-11-18T01:22:05.009Z,11.70
2022-11-18T01:24:35.340Z,11.70
2022-11-18T01:27:03.771Z,11.70
2022-11-18T01:29:32.295Z,11.60
2022-11-18T01:34:49.236Z,11.60
2022-11-18T01:37:17.725Z,11.60
2022-11-18T01:39:47.542Z,11.60
2022-11-18T01:42:18.823Z,11.60
2022-11-18T01:45:22.379Z,11.50
2022-11-18T01:47:56.595Z,11.50
2022-11-18T01:50:26.056Z,11.50
2022-11-18T01:52:58.059Z,11.50
2022-11-18T01:55:32.689Z,11.50
2022-11-18T01:58:06.719Z,11.50
2022-11-18T02:00:35.486Z,11.50
2022-11-18T02:03:04.868Z,11.50
2022-11-18T02:05:34.868Z,11.60
2022-11-18T02:08:04.756Z,11.50
2022-11-18T02:10:34.868Z,11.50
2022-11-18T02:13:03.704Z,11.50
2022-11-18T02:15:47.548Z,11.50
2022-11-18T02:18:25.044Z,11.50
2022-11-18T02:20:58.969Z,11.60
2022-11-18T02:24:18.416Z,11.50
2022-11-18T02:27:22.507Z,11.60
2022-11-18T02:29:56.914Z,11.50
2022-11-18T02:32:30.718Z,11.50
2022-11-18T02:35:04.553Z,11.60
2022-11-18T02:37:37.559Z,11.60
2022-11-18T02:40:11.518Z,11.60
2022-11-18T02:42:41.777Z,11.60
2022-11-18T02:45:16.548Z,11.60
2022-11-18T02:47:48.037Z,11.60
2022-11-18T02:50:20.764Z,11.50
2022-11-18T02:52:53.114Z,11.50
2022-11-18T02:55:23.301Z,11.50
2022-11-18T02:57:52.818Z,11.50
2022-11-18T03:00:22.841Z,11.50
2022-11-18T03:02:51.716Z,11.60
2022-11-18T03:05:27.082Z,11.60
2022-11-18T03:08:01.532Z,11.60
2022-11-18T03:10:37.016Z,11.50
2022-11-18T03:13:15.895Z,11.60
2022-11-18T03:15:55.168Z,11.60
2022-11-18T03:18:29.647Z,11.60
2022-11-18T03:21:04.845Z,11.60
2022-11-18T03:23:37.556Z,11.60
2022-11-18T03:26:10.554Z,11.60
2022-11-18T03:28:44.700Z,11.70
2022-11-18T03:31:20.640Z,11.60
2022-11-18T03:33:52.034Z,11.60
2022-11-18T03:36:25.324Z,11.60
2022-11-18T03:38:58.920Z,11.60
2022-11-18T03:41:29.719Z,11.60
2022-11-18T03:44:03.100Z,11.60
2022-11-18T03:46:39.491Z,11.60
2022-11-18T03:49:10.938Z,11.60
2022-11-18T03:51:43.724Z,11.50
2022-11-18T03:54:15.404Z,11.50
2022-11-18T03:56:50.556Z,11.50
2022-11-18T03:59:25.488Z,11.50
2022-11-18T04:01:58.846Z,11.50
2022-11-18T04:04:28.847Z,11.50
2022-11-18T04:07:04.731Z,11.50
2022-11-18T04:09:36.749Z,11.50
2022-11-18T04:12:09.988Z,11.50
2022-11-18T04:14:40.805Z,11.50
2022-11-18T04:17:13.242Z,11.50
2022-11-18T04:19:42.254Z,11.50
2022-11-18T04:22:11.462Z,11.50
2022-11-18T04:24:40.165Z,11.40
2022-11-18T04:27:09.275Z,11.50
2022-11-18T04:29:37.828Z,11.50
2022-11-18T04:32:06.745Z,11.50
2022-11-18T04:34:36.657Z,11.50
2022-11-18T04:37:05.341Z,11.50
2022-11-18T04:39:33.792Z,11.50
2022-11-18T04:42:02.190Z,11.50
2022-11-18T04:44:32.498Z,11.50
2022-11-18T04:47:02.817Z,11.50
2022-11-18T04:49:31.558Z,11.50
2022-11-18T04:52:01.650Z,11.50
2022-11-18T04:54:30.408Z,11.40
2022-11-18T04:56:59.177Z,11.50
2022-11-18T04:59:29.601Z,11.50
2022-11-18T05:02:00.956Z,11.50
2022-11-18T05:04:31.605Z,11.50
2022-11-18T05:07:02.994Z,11.50
2022-11-18T05:09:32.449Z,11.50
2022-11-18T05:12:18.587Z,11.50
2022-11-18T05:14:50.441Z,11.50
2022-11-18T05:17:19.904Z,11.50
2022-11-18T05:19:48.442Z,11.50
2022-11-18T05:22:18.425Z,11.50
2022-11-18T05:24:46.748Z,11.50
2022-11-18T05:27:16.085Z,11.50
2022-11-18T05:29:44.807Z,11.50
2022-11-18T05:32:13.423Z,11.50
2022-11-18T05:34:42.725Z,11.50
2022-11-18T05:37:11.866Z,11.50
2022-11-18T05:39:41.719Z,11.50
2022-11-18T05:42:29.184Z,11.40
2022-11-18T05:44:58.671Z,11.40
2022-11-18T05:47:27.754Z,11.40
2022-11-18T05:49:56.319Z,11.40
2022-11-18T05:52:24.831Z,11.40
2022-11-18T05:54:55.266Z,11.40
2022-11-18T05:57:23.689Z,11.40
2022-11-18T05:59:52.220Z,11.40
2022-11-18T06:02:24.393Z,11.50
2022-11-18T06:04:57.838Z,11.50
2022-11-18T06:07:29.349Z,11.50
2022-11-18T06:10:05.436Z,11.50
2022-11-18T06:12:38.503Z,11.50
2022-11-18T06:15:11.836Z,11.50
2022-11-18T06:17:45.201Z,11.50
2022-11-18T06:20:14.241Z,11.50
2022-11-18T06:22:46.588Z,11.50
2022-11-18T06:25:17.184Z,11.50
2022-11-18T06:27:46.375Z,11.50
2022-11-18T06:30:16.255Z,11.50
2022-11-18T06:32:44.834Z,11.50
2022-11-18T06:35:13.229Z,11.50
2022-11-18T06:37:41.698Z,11.60
2022-11-18T06:40:11.657Z,11.60
2022-11-18T06:42:58.943Z,11.60
2022-11-18T06:45:27.453Z,11.60
2022-11-18T06:47:57.315Z,11.60
2022-11-18T06:50:26.102Z,11.60
2022-11-18T06:52:54.610Z,11.60
2022-11-18T06:55:23.193Z,11.70
2022-11-18T06:57:53.010Z,11.70
2022-11-18T07:00:21.731Z,11.70
2022-11-18T07:02:50.165Z,11.70
2022-11-18T07:05:18.646Z,11.70
2022-11-18T07:07:47.141Z,11.70
2022-11-18T07:10:16.067Z,11.70
2022-11-18T07:12:44.435Z,11.70
2022-11-18T07:15:14.372Z,11.80
2022-11-18T07:17:42.706Z,11.80
2022-11-18T07:20:12.066Z,11.80
2022-11-18T07:22:40.526Z,11.90
2022-11-18T07:25:09.634Z,12.00
2022-11-18T07:27:38.067Z,12.10
2022-11-18T07:30:07.523Z,12.10
2022-11-18T07:32:37.281Z,12.20
2022-11-18T07:35:06.315Z,12.30
2022-11-18T07:37:34.806Z,12.30
2022-11-18T07:40:03.369Z,12.30
2022-11-18T07:42:42.598Z,12.30
2022-11-18T07:45:24.468Z,12.30
2022-11-18T07:47:54.354Z,12.40
2022-11-18T07:50:22.747Z,12.40
2022-11-18T07:52:51.152Z,12.40
2022-11-18T07:55:19.602Z,12.40
2022-11-18T07:57:48.059Z,12.40
2022-11-18T08:00:17.198Z,12.50
2022-11-18T08:02:45.629Z,12.40
2022-11-18T08:05:18.060Z,12.50
2022-11-18T08:07:47.010Z,12.60
2022-11-18T08:10:15.541Z,12.60
2022-11-18T08:12:44.075Z,12.70
2022-11-18T08:15:12.803Z,12.70
2022-11-18T08:17:41.346Z,12.70
2022-11-18T08:20:11.028Z,12.70
2022-11-18T08:22:40.763Z,12.60
2022-11-18T08:25:10.206Z,12.60
2022-11-18T08:27:38.689Z,12.50
2022-11-18T08:30:08.162Z,12.50
2022-11-18T08:32:36.654Z,12.50
2022-11-18T08:35:10.885Z,12.60
2022-11-18T08:37:41.145Z,12.60
2022-11-18T08:40:10.711Z,12.60
2022-11-18T08:42:39.142Z,12.70
2022-11-18T08:45:08.955Z,12.70
2022-11-18T08:47:37.995Z,12.80
2022-11-18T08:50:07.742Z,12.80
2022-11-18T08:52:36.825Z,12.80
2022-11-18T08:55:07.519Z,12.80
2022-11-18T08:57:35.962Z,12.90
2022-11-18T09:00:05.051Z,12.90
2022-11-18T09:02:33.533Z,13.00
2022-11-18T09:05:02.048Z,13.00
2022-11-18T09:07:30.568Z,13.00
2022-11-18T09:09:59.088Z,13.10
2022-11-18T09:12:28.974Z,13.10
2022-11-18T09:15:14.202Z,13.10
2022-11-18T09:17:43.291Z,13.20
2022-11-18T09:20:12.287Z,13.10
2022-11-18T09:22:41.039Z,13.20
2022-11-18T09:25:10.670Z,13.20
2022-11-18T09:27:40.627Z,13.30
2022-11-18T09:30:10.403Z,13.30
2022-11-18T09:32:38.937Z,13.20
2022-11-18T09:35:07.895Z,13.30
2022-11-18T09:37:36.358Z,13.20
2022-11-18T09:40:05.364Z,13.30
2022-11-18T09:42:49.614Z,13.30
2022-11-18T09:45:25.436Z,13.40
2022-11-18T09:47:59.313Z,13.50
2022-11-18T09:50:49.128Z,13.50
2022-11-18T09:53:21.334Z,13.50
2022-11-18T09:55:51.134Z,13.50
2022-11-18T09:58:28.419Z,13.50
2022-11-18T10:00:56.949Z,13.50
2022-11-18T10:03:29.802Z,13.50
2022-11-18T10:06:03.798Z,13.50
2022-11-18T10:08:37.128Z,13.60
2022-11-18T10:11:12.254Z,13.80
2022-11-18T10:13:53.738Z,13.80
2022-11-18T10:16:33.964Z,13.90
2022-11-18T10:19:13.330Z,13.80
2022-11-18T10:21:56.652Z,13.80
2022-11-18T10:24:26.920Z,13.80
2022-11-18T10:26:56.810Z,13.80
2022-11-18T10:29:27.010Z,13.80
2022-11-18T10:32:04.758Z,13.90
2022-11-18T10:34:34.042Z,13.90
2022-11-18T10:37:04.715Z,13.90
2022-11-18T10:39:33.844Z,13.80
2022-11-18T10:42:05.011Z,13.80
2022-11-18T10:44:37.605Z,13.80
2022-11-18T10:47:24.788Z,13.80
2022-11-18T10:49:53.813Z,13.90
2022-11-18T10:52:22.598Z,13.90
2022-11-18T10:55:24.693Z,14.00
2022-11-18T10:57:57.489Z,14.10
2022-11-18T11:00:39.566Z,14.20
2022-11-18T11:03:42.112Z,14.30
2022-11-18T11:06:38.619Z,14.40
2022-11-18T11:09:10.599Z,14.60
2022-11-18T11:11:43.299Z,14.70
2022-11-18T11:14:23.375Z,14.70
2022-11-18T11:17:00.011Z,14.60
2022-11-18T11:19:36.890Z,14.60
2022-11-18T11:22:09.450Z,14.50
2022-11-18T11:24:38.602Z,14.40
2022-11-18T11:30:22.577Z,14.10
2022-11-18T11:33:15.839Z,14.10
2022-11-18T11:35:52.277Z,14.20
2022-11-18T11:38:30.486Z,14.30
2022-11-18T11:41:07.306Z,14.20
2022-11-18T11:43:47.592Z,14.30
2022-11-18T11:46:28.067Z,14.20
2022-11-18T11:49:15.332Z,14.30
2022-11-18T11:51:51.532Z,14.30
2022-11-18T11:54:38.639Z,14.20
2022-11-18T11:57:16.768Z,14.10
2022-11-18T11:59:50.178Z,14.10
2022-11-18T12:02:52.758Z,14.10
2022-11-18T12:05:27.526Z,14.10
2022-11-18T12:07:59.148Z,14.20
2022-11-18T12:10:33.645Z,14.20
2022-11-18T12:13:13.717Z,14.30
2022-11-18T12:16:12.640Z,14.40
2022-11-18T12:18:44.824Z,14.50
2022-11-18T12:21:46.749Z,14.60
2022-11-18T12:24:44.049Z,14.70
2022-11-18T12:27:36.363Z,14.70
2022-11-18T12:30:05.421Z,14.70
2022-11-18T12:32:42.561Z,14.60
2022-11-18T12:35:32.543Z,14.60
2022-11-18T12:38:04.498Z,14.60
2022-11-18T12:40:48.879Z,14.60
2022-11-18T12:44:04.343Z,14.70
2022-11-18T12:46:54.997Z,14.80
2022-11-18T12:50:12.735Z,14.80
2022-11-18T12:52:52.665Z,14.80
2022-11-18T12:55:26.772Z,14.80
2022-11-18T12:57:56.573Z,14.80
2022-11-18T13:00:52.594Z,14.80
2022-11-18T13:03:28.944Z,14.70
2022-11-18T13:06:09.022Z,14.70
2022-11-18T13:08:38.961Z,14.60
2022-11-18T13:11:33.021Z,14.50
2022-11-18T13:14:21.394Z,14.60
2022-11-18T13:17:07.622Z,14.80
2022-11-18T13:19:36.504Z,14.80
2022-11-18T13:22:22.543Z,14.90
2022-11-18T13:24:52.858Z,14.90
2022-11-18T13:27:32.653Z,15.00
2022-11-18T13:30:24.978Z,15.00
2022-11-18T13:32:56.709Z,15.00
2022-11-18T13:35:27.313Z,15.10
2022-11-18T13:37:59.422Z,15.00
2022-11-18T13:40:30.263Z,15.10
2022-11-18T13:42:58.792Z,15.10
2022-11-18T13:45:30.034Z,15.20
2022-11-18T13:48:01.521Z,15.20
2022-11-18T13:50:34.826Z,15.20
2022-11-18T13:53:24.349Z,15.10
2022-11-18T13:55:56.116Z,15.10
2022-11-18T13:58:55.600Z,15.10
2022-11-18T14:01:26.861Z,15.00
2022-11-18T14:03:59.736Z,15.00
2022-11-18T14:06:30.063Z,15.00
2022-11-18T14:09:24.947Z,15.00
2022-11-18T14:12:02.199Z,15.00
2022-11-18T14:14:33.531Z,15.00
2022-11-18T14:17:16.735Z,15.00
2022-11-18T14:19:46.912Z,15.00
2022-11-18T14:22:18.889Z,15.00
2022-11-18T14:24:56.833Z,14.80
2022-11-18T14:27:48.416Z,14.80
2022-11-18T14:30:35.879Z,14.80
2022-11-18T14:33:15.599Z,14.80
2022-11-18T14:35:45.652Z,14.80
2022-11-18T14:38:36.578Z,14.80
2022-11-18T14:41:07.230Z,14.70
2022-11-18T14:43:35.815Z,14.70
2022-11-18T14:46:07.412Z,14.70
2022-11-18T14:48:39.738Z,14.60
2022-11-18T14:51:08.349Z,14.50
2022-11-18T14:53:36.759Z,14.50
2022-11-18T14:56:12.887Z,14.50
2022-11-18T14:58:41.364Z,14.40
2022-11-18T15:01:12.566Z,14.30
2022-11-18T15:03:42.515Z,14.20
2022-11-18T15:06:18.369Z,14.10
2022-11-18T15:08:49.229Z,14.00
2022-11-18T15:11:19.176Z,13.90
2022-11-18T15:13:47.707Z,13.90
2022-11-18T15:16:18.094Z,13.80
2022-11-18T15:18:50.134Z,13.70
2022-11-18T15:21:19.009Z,13.70
2022-11-18T15:23:47.950Z,13.50
2022-11-18T15:26:22.233Z,13.30
2022-11-18T15:28:51.898Z,13.30
2022-11-18T15:31:21.147Z,13.10
2022-11-18T15:33:51.816Z,13.10
2022-11-18T15:36:22.719Z,13.00
2022-11-18T15:38:52.802Z,12.90
2022-11-18T15:41:22.907Z,12.70
2022-11-18T15:43:52.158Z,12.60
2022-11-18T15:46:22.601Z,12.60
2022-11-18T15:48:54.854Z,12.50
2022-11-18T15:51:24.677Z,12.40
2022-11-18T15:53:53.262Z,12.40
2022-11-18T15:56:30.222Z,12.30
2022-11-18T15:59:00.920Z,12.30
2022-11-18T16:01:31.206Z,12.20
2022-11-18T16:04:01.609Z,12.20
2022-11-18T16:06:30.304Z,12.20
2022-11-18T16:09:00.468Z,12.20
2022-11-18T16:11:48.002Z,12.10
2022-11-18T16:14:18.586Z,12.10
2022-11-18T16:16:51.811Z,12.10
2022-11-18T16:19:24.660Z,12.00
2022-11-18T16:21:54.909Z,12.00
2022-11-18T16:24:25.538Z,11.90
2022-11-18T16:26:54.522Z,11.80
2022-11-18T16:29:24.047Z,11.60
2022-11-18T16:31:54.729Z,11.50
2022-11-18T16:34:26.782Z,11.50
2022-11-18T16:36:56.542Z,11.40
2022-11-18T16:39:27.255Z,11.30
2022-11-18T16:42:06.451Z,11.30
2022-11-18T16:44:36.639Z,11.20
2022-11-18T16:47:14.279Z,11.10
2022-11-18T16:49:45.127Z,11.10
2022-11-18T16:52:13.760Z,11.10
2022-11-18T16:54:45.767Z,11.10
2022-11-18T16:57:15.615Z,11.10
2022-11-18T16:59:44.506Z,11.00
2022-11-18T17:02:14.961Z,10.90
2022-11-18T17:04:45.182Z,10.90
2022-11-18T17:07:14.966Z,10.80
2022-11-18T17:09:43.628Z,10.70
2022-11-18T17:12:12.408Z,10.50
2022-11-18T17:14:41.486Z,10.40
2022-11-18T17:17:10.229Z,10.30
2022-11-18T17:19:38.820Z,10.30
2022-11-18T17:22:08.946Z,10.40
2022-11-18T17:24:37.523Z,10.40
2022-11-18T17:27:06.115Z,10.40
2022-11-18T17:29:34.826Z,10.40
2022-11-18T17:32:03.436Z,10.30
2022-11-18T17:34:31.973Z,10.20
2022-11-18T17:37:06.502Z,10.10
2022-11-18T17:39:37.432Z,10.10
2022-11-18T17:42:15.292Z,10.10
2022-11-18T17:44:44.078Z,10.10
2022-11-18T17:47:12.851Z,10.10
2022-11-18T17:49:41.493Z,10.10
2022-11-18T17:52:10.235Z,10.10
2022-11-18T17:54:40.300Z,10.20
2022-11-18T17:57:08.881Z,10.30
2022-11-18T17:59:37.648Z,10.40
2022-11-18T18:02:06.691Z,10.40
2022-11-18T18:04:35.310Z,10.50
2022-11-18T18:07:03.910Z,10.50
2022-11-18T18:09:32.478Z,10.50
2022-11-18T18:12:22.663Z,10.50
2022-11-18T18:14:50.156Z,10.50
2022-11-18T18:17:18.723Z,10.50
2022-11-18T18:19:47.297Z,10.50
2022-11-18T18:22:15.823Z,10.50
2022-11-18T18:24:44.343Z,10.60
2022-11-18T18:27:14.320Z,10.50
2022-11-18T18:29:42.978Z,10.50
2022-11-18T18:32:11.758Z,10.50
2022-11-18T18:34:40.450Z,10.40
2022-11-18T18:37:09.066Z,10.40
2022-11-18T18:39:37.556Z,10.40
2022-11-18T18:42:06.275Z,10.30
2022-11-18T18:44:55.974Z,10.20
2022-11-18T18:47:24.578Z,10.20
2022-11-18T18:49:53.283Z,10.20
2022-11-18T18:52:21.981Z,10.20
2022-11-18T18:54:50.560Z,10.20
2022-11-18T18:57:19.261Z,10.20
2022-11-18T18:59:49.414Z,10.10
2022-11-18T19:02:17.911Z,10.10
2022-11-18T19:04:47.254Z,10.10
2022-11-18T19:07:16.877Z,10.10
2022-11-18T19:09:46.015Z,10.10
2022-11-18T19:12:32.022Z,10.00
2022-11-18T19:15:01.888Z,9.90
2022-11-18T19:17:30.487Z,9.80
2022-11-18T19:20:16.458Z,9.80
2022-11-18T19:22:44.853Z,9.70
2022-11-18T19:25:13.551Z,9.70
2022-11-18T19:27:42.038Z,9.70
2022-11-18T19:30:12.889Z,9.70
2022-11-18T19:32:42.509Z,9.80
2022-11-18T19:35:11.609Z,9.70
2022-11-18T19:37:40.082Z,9.70
2022-11-18T19:40:10.527Z,9.60
2022-11-18T19:42:39.694Z,9.60
2022-11-18T19:45:09.490Z,9.50
2022-11-18T19:47:39.527Z,9.50
2022-11-18T19:50:09.047Z,9.40
2022-11-18T19:52:37.536Z,9.40
2022-11-18T19:55:07.982Z,9.40
2022-11-18T19:57:36.434Z,9.40
2022-11-18T20:00:05.735Z,9.40
2022-11-18T20:02:40.427Z,9.40
2022-11-18T20:05:26.481Z,9.40
2022-11-18T20:07:55.964Z,9.40
2022-11-18T20:10:24.776Z,9.40
2022-11-18T20:12:53.493Z,9.30
2022-11-18T20:15:22.020Z,9.30
2022-11-18T20:17:51.819Z,9.30
2022-11-18T20:20:20.272Z,9.30
2022-11-18T20:22:48.843Z,9.30
2022-11-18T20:25:17.454Z,9.30
2022-11-18T20:27:45.987Z,9.30
2022-11-18T20:30:14.854Z,9.40
2022-11-18T20:32:43.322Z,9.40
2022-11-18T20:35:13.887Z,9.40
2022-11-18T20:37:42.742Z,9.30
2022-11-18T20:40:11.844Z,9.20
2022-11-18T20:42:57.598Z,9.20
2022-11-18T20:45:26.012Z,9.20
2022-11-18T20:47:54.470Z,9.20
2022-11-18T20:50:24.305Z,9.20
2022-11-18T20:52:52.975Z,9.20
2022-11-18T20:55:21.421Z,9.20
2022-11-18T20:57:50.024Z,9.20
2022-11-18T21:00:19.330Z,9.20
2022-11-18T21:02:47.890Z,9.20
2022-11-18T21:05:16.435Z,9.20
2022-11-18T21:07:46.268Z,9.20
2022-11-18T21:10:14.691Z,9.20
2022-11-18T21:13:03.133Z,9.10
2022-11-18T21:15:30.618Z,9.20
2022-11-18T21:17:59.178Z,9.20
2022-11-18T21:20:44.990Z,9.20
2022-11-18T21:23:14.847Z,9.30
2022-11-18T21:25:43.518Z,9.30
2022-11-18T21:28:12.089Z,9.20
2022-11-18T21:30:40.670Z,9.20
2022-11-18T21:33:09.062Z,9.30
2022-11-18T21:35:37.554Z,9.30
2022-11-18T21:38:06.446Z,9.30
2022-11-18T21:40:36.168Z,9.30
2022-11-18T21:43:04.602Z,9.30
2022-11-18T21:45:33.102Z,9.30
2022-11-18T21:48:01.958Z,9.40
2022-11-18T21:50:31.926Z,9.40
2022-11-18T21:53:00.454Z,9.40
2022-11-18T21:55:29.108Z,9.40
2022-11-18T21:58:02.937Z,9.50
2022-11-18T22:00:32.690Z,9.40
2022-11-18T22:03:01.258Z,9.40
2022-11-18T22:05:29.730Z,9.40
2022-11-18T22:07:58.262Z,9.40
2022-11-18T22:10:26.820Z,9.50
2022-11-18T22:12:55.385Z,9.40
2022-11-18T22:15:25.322Z,9.50
2022-11-18T22:17:53.814Z,9.40
2022-11-18T22:20:22.386Z,9.50
2022-11-18T22:22:50.925Z,9.50
2022-11-18T22:25:19.453Z,9.50
2022-11-18T22:27:47.967Z,9.50
2022-11-18T22:30:16.942Z,9.50
2022-11-18T22:32:46.728Z,9.50
2022-11-18T22:35:15.133Z,9.50
2022-11-18T22:37:43.492Z,9.40
2022-11-18T22:40:13.279Z,9.40
2022-11-18T22:42:50.530Z,9.40
2022-11-18T22:45:19.188Z,9.40
2022-11-18T22:47:49.013Z,9.40
2022-11-18T22:50:17.823Z,9.40
2022-11-18T22:52:46.252Z,9.50
2022-11-18T22:55:14.628Z,9.70
2022-11-18T22:57:44.216Z,9.60
2022-11-18T23:00:13.810Z,9.70
2022-11-18T23:02:42.229Z,9.70
2022-11-18T23:05:12.158Z,9.80
2022-11-18T23:07:40.607Z,9.70
2022-11-18T23:10:25.031Z,9.70
2022-11-18T23:13:10.962Z,9.70
2022-11-18T23:15:39.408Z,9.60
2022-11-18T23:18:11.608Z,9.60
2022-11-18T23:20:41.916Z,9.60
2022-11-18T23:23:10.249Z,9.60
2022-11-18T23:25:38.563Z,9.60
2022-11-18T23:28:07.030Z,9.60
2022-11-18T23:30:36.772Z,9.60
2022-11-18T23:33:05.360Z,9.70
2022-11-18T23:35:33.835Z,9.60
2022-11-18T23:38:03.665Z,9.70
2022-11-18T23:40:32.091Z,9.70
2022-11-18T23:43:00.434Z,9.80
2022-11-18T23:45:29.257Z,9.80
2022-11-18T23:47:57.650Z,9.80
2022-11-18T23:50:26.006Z,9.80
2022-11-18T23:52:54.444Z,9.70
2022-11-18T23:55:24.716Z,9.70
2022-11-18T23:57:53.079Z,9.70
